createdAt,value
2022-09-03T01:00:07.795Z,2.47
2022-09-03T01:01:19.524Z,2.15
2022-09-03T01:03:45.381Z,2.88
2022-09-03T01:05:02.987Z,1.50
2022-09-03T01:06:18.926Z,2.40
2022-09-03T01:07:34.278Z,1.88
2022-09-03T01:08:57.780Z,2.75
2022-09-03T01:10:15.994Z,2.83
2022-09-03T01:11:27.595Z,2.30
2022-09-03T01:12:41.518Z,2.00
2022-09-03T01:13:50.081Z,2.40
2022-09-03T01:15:07.510Z,2.00
2022-09-03T01:16:22.245Z,2.55
2022-09-03T01:17:39.794Z,2.38
2022-09-03T01:18:53.321Z,1.88
2022-09-03T01:20:20.958Z,1.38
2022-09-03T01:21:43.813Z,1.70
2022-09-03T01:23:28.659Z,2.67
2022-09-03T01:25:10.884Z,1.70
2022-09-03T01:26:33.822Z,1.85
2022-09-03T01:27:48.693Z,1.80
2022-09-03T01:29:03.085Z,2.13
2022-09-03T01:30:10.540Z,2.63
2022-09-03T01:31:24.366Z,2.63
2022-09-03T01:32:40.107Z,1.70
2022-09-03T01:33:50.602Z,1.65
2022-09-03T01:35:04.136Z,1.65
2022-09-03T01:36:13.167Z,1.48
2022-09-03T01:37:28.139Z,1.67
2022-09-03T01:38:42.858Z,3.03
2022-09-03T01:39:58.699Z,2.22
2022-09-03T01:41:26.681Z,1.65
2022-09-03T01:42:43.115Z,1.98
2022-09-03T01:43:54.833Z,2.53
2022-09-03T01:46:26.128Z,1.58
2022-09-03T01:47:41.010Z,1.20
2022-09-03T01:48:49.760Z,1.75
2022-09-03T01:50:05.773Z,1.55
2022-09-03T01:51:19.995Z,2.60
2022-09-03T01:52:38.987Z,1.65
2022-09-03T01:54:02.028Z,1.65
2022-09-03T01:55:22.841Z,1.85
2022-09-03T01:56:35.973Z,2.42
2022-09-03T01:57:56.265Z,2.05
2022-09-03T01:59:07.289Z,1.70
2022-09-03T02:00:13.962Z,1.80
2022-09-03T02:01:26.785Z,2.05
2022-09-03T02:02:33.401Z,1.83
2022-09-03T02:03:40.817Z,2.35
2022-09-03T02:04:57.350Z,2.17
2022-09-03T02:06:03.893Z,2.33
2022-09-03T02:07:06.745Z,2.25
2022-09-03T02:08:13.461Z,2.50
2022-09-03T02:09:15.550Z,1.88
2022-09-03T02:10:22.484Z,1.67
2022-09-03T02:11:24.916Z,1.83
2022-09-03T02:12:33.800Z,1.52
2022-09-03T02:13:39.823Z,1.52
2022-09-03T02:14:45.181Z,1.45
2022-09-03T02:15:50.546Z,2.13
2022-09-03T02:17:00.521Z,1.40
2022-09-03T02:18:06.334Z,1.52
2022-09-03T02:19:14.804Z,2.08
2022-09-03T02:20:20.976Z,1.40
2022-09-03T02:21:27.372Z,2.65
2022-09-03T02:22:29.465Z,2.17
2022-09-03T02:23:34.130Z,1.63
2022-09-03T02:24:36.519Z,2.20
2022-09-03T02:25:44.368Z,1.95
2022-09-03T02:26:46.991Z,1.85
2022-09-03T02:27:53.465Z,2.63
2022-09-03T02:28:57.071Z,2.45
2022-09-03T02:30:03.002Z,2.58
2022-09-03T02:31:05.591Z,2.17
2022-09-03T02:32:15.009Z,2.80
2022-09-03T02:33:17.309Z,2.33
2022-09-03T02:34:21.938Z,2.35
2022-09-03T02:35:23.973Z,2.75
2022-09-03T02:36:32.550Z,2.03
2022-09-03T02:37:35.074Z,2.13
2022-09-03T02:38:39.846Z,2.35
2022-09-03T02:39:42.435Z,1.98
2022-09-03T02:40:47.262Z,2.25
2022-09-03T02:41:54.989Z,1.80
2022-09-03T02:42:59.728Z,2.70
2022-09-03T02:44:06.612Z,2.42
2022-09-03T02:45:22.634Z,2.28
2022-09-03T02:46:32.640Z,1.50
2022-09-03T02:47:39.523Z,1.58
2022-09-03T02:48:44.308Z,1.70
2022-09-03T02:49:46.958Z,1.88
2022-09-03T02:50:51.765Z,1.23
2022-09-03T02:51:58.558Z,1.63
2022-09-03T02:53:03.173Z,1.88
2022-09-03T02:54:05.734Z,1.63
2022-09-03T02:55:11.434Z,2.75
2022-09-03T02:56:13.945Z,1.90
2022-09-03T02:57:23.851Z,1.95
2022-09-03T02:58:31.669Z,2.75
2022-09-03T02:59:36.455Z,2.50
2022-09-03T03:00:38.962Z,2.53
2022-09-03T03:01:43.569Z,2.80
2022-09-03T03:02:52.531Z,2.33
2022-09-03T03:03:57.206Z,1.65
2022-09-03T03:04:59.435Z,1.80
2022-09-03T03:06:06.798Z,2.45
2022-09-03T03:07:08.839Z,2.42
2022-09-03T03:08:15.342Z,2.25
2022-09-03T03:09:17.525Z,1.90
2022-09-03T03:10:22.165Z,1.95
2022-09-03T03:11:26.417Z,1.75
2022-09-03T03:12:31.459Z,1.50
2022-09-03T03:13:34.291Z,1.58
2022-09-03T03:14:41.256Z,1.55
2022-09-03T03:15:44.365Z,1.95
2022-09-03T03:16:49.048Z,1.42
2022-09-03T03:17:56.202Z,1.92
2022-09-03T03:19:00.936Z,2.38
2022-09-03T03:20:04.014Z,1.60
2022-09-03T03:21:10.001Z,2.35
2022-09-03T03:22:12.052Z,1.60
2022-09-03T03:23:16.888Z,1.75
2022-09-03T03:24:19.044Z,1.52
2022-09-03T03:25:23.729Z,2.53
2022-09-03T03:26:25.755Z,1.70
2022-09-03T03:27:32.516Z,1.55
2022-09-03T03:28:35.001Z,2.08
2022-09-03T03:29:39.689Z,1.95
2022-09-03T03:30:43.129Z,1.73
2022-09-03T03:31:47.826Z,1.70
2022-09-03T03:32:50.128Z,1.63
2022-09-03T03:33:59.199Z,1.55
2022-09-03T03:35:01.196Z,2.05
2022-09-03T03:36:09.866Z,2.10
2022-09-03T03:37:14.767Z,2.08
2022-09-03T03:38:16.820Z,1.95
2022-09-03T03:39:21.409Z,2.05
2022-09-03T03:40:23.500Z,1.83
2022-09-03T03:41:34.472Z,1.88
2022-09-03T03:42:36.640Z,2.53
2022-09-03T03:43:41.490Z,2.70
2022-09-03T03:44:44.092Z,3.10
2022-09-03T03:45:59.560Z,2.47
2022-09-03T03:47:02.450Z,2.55
2022-09-03T03:48:07.162Z,2.58
2022-09-03T03:49:12.062Z,2.80
2022-09-03T03:50:17.018Z,2.05
2022-09-03T03:51:19.813Z,7.50
2022-09-03T03:52:24.378Z,5.40
2022-09-03T03:53:26.387Z,2.50
2022-09-03T03:54:31.445Z,2.10
2022-09-03T03:55:35.330Z,2.35
2022-09-03T03:56:40.099Z,2.25
2022-09-03T03:57:42.170Z,2.28
2022-09-03T03:58:48.536Z,2.92
2022-09-03T03:59:50.963Z,1.70
2022-09-03T04:00:56.104Z,1.85
2022-09-03T04:01:58.329Z,1.50
2022-09-03T04:03:03.049Z,1.65
2022-09-03T04:04:08.170Z,2.53
2022-09-03T04:05:15.056Z,1.65
2022-09-03T04:06:22.285Z,1.77
2022-09-03T04:07:24.333Z,1.52
2022-09-03T04:08:29.464Z,1.63
2022-09-03T04:09:31.714Z,2.15
2022-09-03T04:10:36.335Z,2.25
2022-09-03T04:11:39.138Z,1.48
2022-09-03T04:12:43.875Z,1.60
2022-09-03T04:13:47.052Z,1.73
2022-09-03T04:14:51.638Z,1.63
2022-09-03T04:16:01.079Z,2.45
2022-09-03T04:17:05.811Z,1.77
2022-09-03T04:18:08.663Z,1.60
2022-09-03T04:19:13.503Z,1.77
2022-09-03T04:20:18.158Z,2.00
2022-09-03T04:21:24.814Z,2.05
2022-09-03T04:22:29.693Z,1.88
2022-09-03T04:23:35.229Z,1.98
2022-09-03T04:24:39.863Z,2.88
2022-09-03T04:25:42.373Z,2.95
2022-09-03T04:26:47.362Z,2.72
2022-09-03T04:27:52.627Z,1.95
2022-09-03T04:28:57.591Z,2.40
2022-09-03T04:30:00.144Z,3.35
2022-09-03T04:31:08.461Z,2.78
2022-09-03T04:32:26.070Z,2.03
2022-09-03T04:33:30.938Z,2.03
2022-09-03T04:34:33.016Z,1.80
2022-09-03T04:35:41.141Z,2.22
2022-09-03T04:36:43.233Z,1.70
2022-09-03T04:37:47.864Z,1.90
2022-09-03T04:38:51.917Z,2.22
2022-09-03T04:39:56.797Z,1.73
2022-09-03T04:40:59.946Z,2.72
2022-09-03T04:42:04.661Z,1.98
2022-09-03T04:43:06.843Z,2.05
2022-09-03T04:44:11.458Z,1.95
2022-09-03T04:45:18.695Z,1.60
2022-09-03T04:46:25.043Z,2.28
2022-09-03T04:47:28.274Z,2.50
2022-09-03T04:48:35.253Z,2.70
2022-09-03T04:49:40.301Z,2.10
2022-09-03T04:50:47.478Z,1.80
2022-09-03T04:51:50.253Z,2.20
2022-09-03T04:52:56.401Z,2.10
2022-09-03T04:54:02.742Z,1.63
2022-09-03T04:55:06.345Z,2.85
2022-09-03T04:56:16.055Z,1.90
2022-09-03T04:57:18.132Z,2.28
2022-09-03T04:58:22.808Z,2.33
2022-09-03T04:59:25.307Z,2.53
2022-09-03T05:00:30.271Z,2.83
2022-09-03T05:01:34.337Z,3.72
2022-09-03T05:02:40.026Z,2.75
2022-09-03T05:03:42.189Z,2.95
2022-09-03T05:04:48.451Z,3.25
2022-09-03T05:05:57.005Z,2.55
2022-09-03T05:07:01.656Z,3.33
2022-09-03T05:08:04.375Z,2.42
2022-09-03T05:09:09.584Z,2.25
2022-09-03T05:10:16.396Z,2.20
2022-09-03T05:11:21.588Z,1.80
2022-09-03T05:12:23.721Z,2.45
2022-09-03T05:13:28.695Z,2.13
2022-09-03T05:14:33.305Z,2.03
2022-09-03T05:15:35.540Z,2.67
2022-09-03T05:16:40.332Z,2.83
2022-09-03T05:17:42.441Z,1.77
2022-09-03T05:18:47.928Z,2.75
2022-09-03T05:19:50.055Z,1.95
2022-09-03T05:21:04.490Z,2.15
2022-09-03T05:22:08.171Z,1.73
2022-09-03T05:23:13.077Z,2.40
2022-09-03T05:24:15.547Z,2.20
2022-09-03T05:25:20.190Z,2.08
2022-09-03T05:26:24.876Z,2.60
2022-09-03T05:27:29.535Z,2.40
2022-09-03T05:28:31.882Z,2.30
2022-09-03T05:29:36.668Z,2.35
2022-09-03T05:30:38.750Z,1.90
2022-09-03T05:31:43.390Z,2.22
2022-09-03T05:32:45.442Z,4.68
2022-09-03T05:33:53.375Z,7.10
2022-09-03T05:34:55.839Z,4.10
2022-09-03T05:36:08.820Z,4.50
2022-09-03T05:37:11.822Z,3.63
2022-09-03T05:38:17.205Z,3.17
2022-09-03T05:39:19.296Z,2.78
2022-09-03T05:40:24.053Z,2.45
2022-09-03T05:41:27.461Z,3.17
2022-09-03T05:42:32.579Z,2.50
2022-09-03T05:43:35.298Z,2.42
2022-09-03T05:44:39.944Z,2.72
2022-09-03T05:45:42.296Z,2.35
2022-09-03T05:46:47.274Z,2.88
2022-09-03T05:47:49.457Z,2.28
2022-09-03T05:48:54.368Z,2.63
2022-09-03T05:49:56.418Z,2.15
2022-09-03T05:51:08.823Z,3.20
2022-09-03T05:52:13.594Z,2.20
2022-09-03T05:53:17.584Z,3.58
2022-09-03T05:54:22.238Z,2.33
2022-09-03T05:55:24.315Z,2.45
2022-09-03T05:56:30.857Z,2.25
2022-09-03T05:57:33.429Z,2.45
2022-09-03T05:58:43.600Z,2.30
2022-09-03T05:59:48.275Z,2.72
2022-09-03T06:00:50.343Z,2.53
2022-09-03T06:01:59.395Z,1.95
2022-09-03T06:03:02.354Z,1.98
2022-09-03T06:04:08.716Z,1.88
2022-09-03T06:05:10.780Z,2.10
2022-09-03T06:06:18.590Z,1.75
2022-09-03T06:07:21.476Z,2.05
2022-09-03T06:08:26.566Z,2.10
2022-09-03T06:09:31.226Z,2.95
2022-09-03T06:10:40.715Z,2.58
2022-09-03T06:11:46.192Z,1.92
2022-09-03T06:12:51.889Z,2.30
2022-09-03T06:13:56.850Z,1.88
2022-09-03T06:14:59.121Z,2.53
2022-09-03T06:16:06.035Z,2.00
2022-09-03T06:17:11.334Z,2.65
2022-09-03T06:18:16.130Z,2.53
2022-09-03T06:19:18.896Z,2.25
2022-09-03T06:20:27.792Z,2.08
2022-09-03T06:21:35.898Z,2.85
2022-09-03T06:22:37.951Z,3.10
2022-09-03T06:23:45.784Z,3.05
2022-09-03T06:24:51.383Z,3.20
2022-09-03T06:26:05.082Z,3.45
2022-09-03T06:27:10.249Z,2.30
2022-09-03T06:28:12.391Z,2.30
2022-09-03T06:29:18.546Z,2.58
2022-09-03T06:30:20.793Z,2.75
2022-09-03T06:31:26.083Z,2.17
2022-09-03T06:32:29.440Z,2.40
2022-09-03T06:33:36.019Z,2.63
2022-09-03T06:34:40.818Z,2.08
2022-09-03T06:35:43.404Z,2.83
2022-09-03T06:36:51.308Z,2.08
2022-09-03T06:37:56.585Z,2.40
2022-09-03T06:39:02.350Z,2.60
2022-09-03T06:40:05.002Z,2.22
2022-09-03T06:41:11.218Z,2.33
2022-09-03T06:42:13.474Z,2.50
2022-09-03T06:43:18.450Z,2.13
2022-09-03T06:44:20.688Z,2.40
2022-09-03T06:45:25.387Z,2.08
2022-09-03T06:46:30.032Z,2.25
2022-09-03T06:47:35.127Z,2.30
2022-09-03T06:48:40.857Z,2.47
2022-09-03T06:49:45.513Z,2.45
2022-09-03T06:50:54.294Z,2.50
2022-09-03T06:52:01.456Z,2.30
2022-09-03T06:53:03.544Z,3.13
2022-09-03T06:54:10.698Z,2.25
2022-09-03T06:55:12.836Z,2.35
2022-09-03T06:56:19.808Z,2.28
2022-09-03T06:57:24.441Z,3.17
2022-09-03T06:58:30.157Z,2.83
2022-09-03T06:59:34.843Z,3.20
2022-09-03T07:00:37.002Z,3.05
2022-09-03T07:01:45.291Z,3.13
2022-09-03T07:02:48.870Z,3.40
2022-09-03T07:03:58.161Z,2.97
2022-09-03T07:05:00.547Z,3.50
2022-09-03T07:06:05.616Z,2.60
2022-09-03T07:07:13.382Z,2.90
2022-09-03T07:08:18.046Z,2.88
2022-09-03T07:09:22.721Z,3.05
2022-09-03T07:10:26.158Z,2.65
2022-09-03T07:11:35.919Z,2.47
2022-09-03T07:12:37.983Z,2.70
2022-09-03T07:13:44.327Z,2.33
2022-09-03T07:14:51.184Z,2.75
2022-09-03T07:16:00.264Z,2.55
2022-09-03T07:17:05.080Z,2.58
2022-09-03T07:18:07.154Z,2.33
2022-09-03T07:19:13.513Z,2.78
2022-09-03T07:20:15.785Z,2.47
2022-09-03T07:21:22.465Z,2.70
2022-09-03T07:22:31.733Z,2.70
2022-09-03T07:23:37.155Z,2.63
2022-09-03T07:24:46.939Z,3.33
2022-09-03T07:25:53.784Z,2.85
2022-09-03T07:26:58.421Z,2.83
2022-09-03T07:28:00.564Z,2.88
2022-09-03T07:29:05.815Z,2.92
2022-09-03T07:30:10.460Z,2.40
2022-09-03T07:31:19.566Z,2.25
2022-09-03T07:32:24.217Z,3.00
2022-09-03T07:33:26.397Z,2.78
2022-09-03T07:34:31.691Z,2.85
2022-09-03T07:35:36.851Z,2.63
2022-09-03T07:36:43.367Z,2.95
2022-09-03T07:37:48.047Z,3.08
2022-09-03T07:38:53.034Z,2.53
2022-09-03T07:39:58.632Z,3.55
2022-09-03T07:41:02.081Z,2.65
2022-09-03T07:42:11.128Z,4.35
2022-09-03T07:43:13.398Z,2.40
2022-09-03T07:44:22.952Z,2.72
2022-09-03T07:45:25.116Z,3.03
2022-09-03T07:46:30.522Z,2.90
2022-09-03T07:47:34.722Z,2.70
2022-09-03T07:48:39.351Z,3.63
2022-09-03T07:49:41.407Z,4.38
2022-09-03T07:50:47.866Z,4.57
2022-09-03T07:51:52.453Z,3.47
2022-09-03T07:53:02.029Z,2.92
2022-09-03T07:54:10.189Z,3.53
2022-09-03T07:55:12.302Z,3.08
2022-09-03T07:56:18.088Z,3.60
2022-09-03T07:57:21.089Z,2.78
2022-09-03T07:58:26.118Z,3.13
2022-09-03T07:59:31.512Z,3.08
2022-09-03T08:00:34.191Z,3.35
2022-09-03T08:01:41.701Z,5.95
2022-09-03T08:02:46.223Z,4.15
2022-09-03T08:03:53.274Z,3.60
2022-09-03T08:04:55.364Z,3.88
2022-09-03T08:06:04.133Z,3.05
2022-09-03T08:07:08.764Z,3.17
2022-09-03T08:08:15.508Z,2.67
2022-09-03T08:09:21.075Z,3.25
2022-09-03T08:10:24.772Z,2.58
2022-09-03T08:11:31.544Z,2.40
2022-09-03T08:12:33.812Z,3.05
2022-09-03T08:13:38.746Z,2.80
2022-09-03T08:14:40.792Z,2.55
2022-09-03T08:15:45.444Z,2.60
2022-09-03T08:16:48.182Z,3.28
2022-09-03T08:17:52.954Z,3.33
2022-09-03T08:18:55.035Z,2.83
2022-09-03T08:20:00.425Z,3.15
2022-09-03T08:21:02.469Z,2.88
2022-09-03T08:22:07.178Z,3.13
2022-09-03T08:23:09.240Z,2.60
2022-09-03T08:24:21.039Z,3.25
2022-09-03T08:25:23.121Z,3.65
2022-09-03T08:26:27.737Z,3.13
2022-09-03T08:27:30.237Z,3.17
2022-09-03T08:28:39.266Z,3.38
2022-09-03T08:29:43.931Z,2.40
2022-09-03T08:30:45.958Z,2.70
2022-09-03T08:31:51.332Z,2.30
2022-09-03T08:32:53.766Z,3.25
2022-09-03T08:33:59.769Z,2.72
2022-09-03T08:35:02.145Z,2.75
2022-09-03T08:36:08.397Z,2.38
2022-09-03T08:37:13.255Z,2.85
2022-09-03T08:38:17.857Z,2.40
2022-09-03T08:39:25.175Z,2.85
2022-09-03T08:40:27.336Z,3.22
2022-09-03T08:41:39.204Z,3.25
2022-09-03T08:42:50.446Z,3.08
2022-09-03T08:44:12.588Z,2.75
2022-09-03T08:45:17.826Z,2.97
2022-09-03T08:46:26.139Z,2.85
2022-09-03T08:47:37.061Z,2.50
2022-09-03T08:48:39.631Z,2.70
2022-09-03T08:49:49.974Z,2.35
2022-09-03T08:51:00.098Z,2.88
2022-09-03T08:52:08.916Z,3.55
2022-09-03T08:53:18.780Z,3.53
2022-09-03T08:54:27.564Z,2.92
2022-09-03T08:55:42.834Z,3.20
2022-09-03T08:56:46.432Z,3.00
2022-09-03T08:57:53.981Z,3.15
2022-09-03T08:58:56.410Z,2.85
2022-09-03T09:00:01.224Z,3.15
2022-09-03T09:01:13.777Z,2.75
2022-09-03T09:02:29.710Z,3.15
2022-09-03T09:03:42.650Z,4.40
2022-09-03T09:05:01.894Z,4.30
2022-09-03T09:06:11.634Z,16.67
2022-09-03T09:07:23.387Z,2.60
2022-09-03T09:08:35.543Z,3.90
2022-09-03T09:09:50.085Z,2.38
2022-09-03T09:11:02.678Z,2.45
2022-09-03T09:12:25.041Z,4.45
2022-09-03T09:13:41.257Z,3.95
2022-09-03T09:14:53.594Z,2.67
2022-09-03T09:16:09.637Z,2.50
2022-09-03T09:17:39.462Z,2.42
2022-09-03T09:18:59.470Z,3.28
2022-09-03T09:20:13.869Z,2.40
2022-09-03T09:21:25.137Z,2.50
2022-09-03T09:22:38.431Z,2.25
2022-09-03T09:23:44.766Z,3.17
2022-09-03T09:24:57.518Z,2.92
2022-09-03T09:26:02.963Z,2.92
2022-09-03T09:27:12.817Z,3.38
2022-09-03T09:28:22.711Z,2.63
2022-09-03T09:29:27.749Z,2.70
2022-09-03T09:30:35.979Z,2.65
2022-09-03T09:31:38.468Z,2.55
2022-09-03T09:32:43.142Z,2.00
2022-09-03T09:33:45.667Z,2.75
2022-09-03T09:34:52.544Z,2.45
2022-09-03T09:35:54.919Z,2.25
2022-09-03T09:37:01.786Z,2.55
2022-09-03T09:38:03.859Z,2.83
2022-09-03T09:39:11.768Z,3.20
2022-09-03T09:40:25.754Z,2.55
2022-09-03T09:41:30.476Z,2.35
2022-09-03T09:42:32.658Z,2.83
2022-09-03T09:43:38.416Z,3.00
2022-09-03T09:44:42.799Z,2.70
2022-09-03T09:45:49.497Z,3.22
2022-09-03T09:46:54.827Z,3.30
2022-09-03T09:47:59.960Z,3.63
2022-09-03T09:49:05.075Z,16.38
2022-09-03T09:50:25.097Z,59.25
2022-09-03T09:51:33.693Z,146.45
2022-09-03T09:52:35.868Z,42.50
2022-09-03T09:53:40.682Z,115.55
2022-09-03T09:54:45.979Z,85.72
2022-09-03T09:55:58.852Z,78.68
2022-09-03T09:57:06.375Z,2.70
2022-09-03T09:58:14.289Z,3.15
2022-09-03T09:59:22.411Z,3.03
2022-09-03T10:00:24.517Z,3.13
2022-09-03T10:01:30.520Z,2.78
2022-09-03T10:02:35.590Z,3.00
2022-09-03T10:03:50.721Z,16.38
2022-09-03T10:04:53.021Z,3.33
2022-09-03T10:06:26.552Z,3.53
2022-09-03T10:07:31.448Z,2.25
2022-09-03T10:08:36.081Z,2.80
2022-09-03T10:09:40.736Z,2.75
2022-09-03T10:10:49.809Z,2.30
2022-09-03T10:12:11.137Z,1.80
2022-09-03T10:13:19.707Z,3.33
2022-09-03T10:14:26.770Z,2.60
2022-09-03T10:15:38.636Z,2.92
2022-09-03T10:16:49.148Z,2.40
2022-09-03T10:18:03.908Z,2.47
2022-09-03T10:19:11.643Z,2.00
2022-09-03T10:20:31.142Z,2.05
2022-09-03T10:21:44.045Z,2.78
2022-09-03T10:22:56.221Z,2.78
2022-09-03T10:24:08.993Z,2.85
2022-09-03T10:26:19.537Z,2.90
2022-09-03T10:27:24.225Z,1.83
2022-09-03T10:28:33.398Z,2.13
2022-09-03T10:29:36.087Z,2.42
2022-09-03T10:30:56.541Z,2.10
2022-09-03T10:32:10.247Z,2.47
2022-09-03T10:33:20.351Z,3.15
2022-09-03T10:34:37.099Z,2.80
2022-09-03T10:35:49.266Z,2.28
2022-09-03T10:37:03.331Z,2.30
2022-09-03T10:38:11.290Z,63.05
2022-09-03T10:39:24.545Z,100.32
2022-09-03T10:40:35.096Z,5.53
2022-09-03T10:41:56.012Z,4.65
2022-09-03T10:43:16.984Z,2.50
2022-09-03T10:44:48.910Z,2.10
2022-09-03T10:46:01.286Z,3.30
2022-09-03T10:47:23.000Z,2.95
2022-09-03T10:48:45.646Z,2.63
2022-09-03T10:50:01.855Z,2.33
2022-09-03T10:51:08.005Z,4.55
2022-09-03T10:52:19.889Z,2.70
2022-09-03T10:53:34.766Z,6.68
2022-09-03T10:54:52.520Z,332.83
2022-09-03T10:56:00.722Z,498.38
2022-09-03T10:57:15.727Z,836.67
2022-09-03T10:58:42.199Z,752.75
2022-09-03T11:00:04.384Z,361.33
2022-09-03T11:01:14.878Z,250.35
2022-09-03T11:02:32.478Z,262.52
2022-09-03T11:04:03.347Z,244.85
2022-09-03T11:05:09.483Z,184.45
2022-09-03T11:06:19.949Z,171.35
2022-09-03T11:07:25.870Z,99.75
2022-09-03T11:08:34.514Z,114.05
2022-09-03T11:09:43.516Z,137.65
2022-09-03T11:10:50.684Z,118.70
2022-09-03T11:12:00.292Z,156.48
2022-09-03T11:13:06.721Z,186.68
2022-09-03T11:14:21.075Z,143.20
2022-09-03T11:15:28.773Z,3.20
2022-09-03T11:16:36.792Z,2.58
2022-09-03T11:17:43.000Z,2.08
2022-09-03T11:18:52.527Z,2.35
2022-09-03T11:19:59.601Z,2.53
2022-09-03T11:21:12.109Z,19.90
2022-09-03T11:22:20.891Z,54.80
2022-09-03T11:23:28.053Z,2.53
2022-09-03T11:24:37.403Z,2.80
2022-09-03T11:25:44.281Z,2.22
2022-09-03T11:26:55.574Z,2.28
2022-09-03T11:28:11.811Z,2.83
2022-09-03T11:29:24.113Z,2.17
2022-09-03T11:30:32.744Z,2.42
2022-09-03T11:31:48.961Z,2.70
2022-09-03T11:32:56.081Z,2.60
2022-09-03T11:34:08.314Z,2.20
2022-09-03T11:35:16.207Z,3.60
2022-09-03T11:36:31.600Z,3.22
2022-09-03T11:37:34.557Z,2.05
2022-09-03T11:41:15.886Z,2.38
2022-09-03T11:42:31.069Z,1.73
2022-09-03T11:43:37.071Z,1.98
2022-09-03T11:44:51.365Z,2.03
2022-09-03T11:46:07.024Z,2.42
2022-09-03T11:47:23.979Z,2.17
2022-09-03T11:48:39.098Z,2.10
2022-09-03T11:49:50.904Z,2.05
2022-09-03T11:50:54.376Z,2.40
2022-09-03T11:52:03.569Z,2.25
2022-09-03T11:53:11.019Z,2.65
2022-09-03T11:54:29.423Z,2.53
2022-09-03T11:55:43.352Z,2.30
2022-09-03T11:56:50.677Z,2.95
2022-09-03T11:57:55.458Z,1.77
2022-09-03T11:59:15.949Z,2.03
2022-09-03T12:00:25.244Z,2.10
2022-09-03T12:01:28.500Z,2.53
2022-09-03T12:02:36.263Z,2.28
2022-09-03T12:03:43.798Z,2.67
2022-09-03T12:04:54.736Z,2.90
2022-09-03T12:06:19.996Z,2.60
2022-09-03T12:07:46.042Z,2.45
2022-09-03T12:09:08.785Z,2.63
2022-09-03T12:10:26.880Z,3.03
2022-09-03T12:11:44.374Z,2.60
2022-09-03T12:12:58.502Z,2.45
2022-09-03T12:14:13.894Z,2.80
2022-09-03T12:15:34.680Z,2.78
2022-09-03T12:16:55.611Z,2.78
2022-09-03T12:18:14.530Z,3.15
2022-09-03T12:19:28.020Z,2.22
2022-09-03T12:20:30.359Z,2.95
2022-09-03T12:21:41.353Z,2.58
2022-09-03T12:22:43.718Z,3.05
2022-09-03T12:23:50.562Z,4.15
2022-09-03T12:24:52.804Z,2.22
2022-09-03T12:25:57.733Z,3.83
2022-09-03T12:27:05.796Z,2.55
2022-09-03T12:28:13.511Z,3.45
2022-09-03T12:29:27.995Z,2.75
2022-09-03T12:30:33.132Z,4.15
2022-09-03T12:31:50.108Z,2.45
2022-09-03T12:33:05.026Z,2.65
2022-09-03T12:34:15.243Z,2.78
2022-09-03T12:36:46.046Z,2.72
2022-09-03T12:38:08.792Z,2.92
2022-09-03T12:39:17.434Z,3.92
2022-09-03T12:40:21.651Z,4.68
2022-09-03T12:41:31.211Z,4.40
2022-09-03T12:42:34.526Z,11.32
2022-09-03T12:43:39.745Z,8.30
2022-09-03T12:44:43.126Z,5.00
2022-09-03T12:48:44.155Z,3.28
2022-09-03T12:49:47.737Z,5.22
2022-09-03T12:52:32.534Z,4.53
2022-09-03T12:53:34.804Z,4.40
2022-09-03T12:54:45.786Z,5.40
2022-09-03T12:55:55.200Z,4.70
2022-09-03T12:57:02.150Z,4.55
2022-09-03T12:58:14.042Z,4.53
2022-09-03T12:59:19.792Z,3.50
2022-09-03T13:00:25.477Z,3.28
2022-09-03T13:01:33.867Z,47.67
2022-09-03T13:02:46.412Z,3.22
2022-09-03T13:03:54.861Z,4.15
2022-09-03T13:05:00.022Z,3.22
2022-09-03T13:06:08.228Z,3.67
2022-09-03T13:07:19.248Z,2.80
2022-09-03T13:08:23.788Z,2.35
2022-09-03T13:09:32.256Z,4.43
2022-09-03T13:10:39.031Z,4.13
2022-09-03T13:11:45.269Z,4.32
2022-09-03T13:12:53.001Z,3.83
2022-09-03T13:14:05.610Z,101.50
2022-09-03T13:15:12.354Z,156.93
2022-09-03T13:16:48.413Z,39.22
2022-09-03T13:18:16.163Z,149.90
2022-09-03T13:19:25.949Z,27.30
2022-09-03T13:20:41.480Z,26.58
2022-09-03T13:21:51.427Z,95.15
2022-09-03T13:23:10.908Z,416.73
2022-09-03T13:24:40.854Z,969.28
2022-09-03T13:25:56.845Z,934.78
2022-09-03T13:27:08.484Z,999.90
2022-09-03T13:28:27.817Z,999.90
2022-09-03T13:29:52.670Z,999.90
2022-09-03T13:31:02.538Z,950.47
2022-09-03T13:32:17.117Z,925.55
2022-09-03T13:33:30.299Z,916.88
2022-09-03T13:34:36.044Z,919.67
2022-09-03T13:35:48.277Z,983.70
2022-09-03T13:36:54.616Z,997.10
2022-09-03T13:38:06.092Z,990.47
2022-09-03T13:39:20.635Z,991.67
2022-09-03T13:40:30.686Z,985.30
2022-09-03T13:41:38.764Z,986.70
2022-09-03T13:42:47.573Z,988.65
2022-09-03T13:44:05.353Z,988.58
2022-09-03T13:45:21.073Z,983.78
2022-09-03T13:46:31.432Z,976.33
2022-09-03T13:48:02.454Z,972.95
2022-09-03T13:49:32.953Z,977.08
2022-09-03T13:50:45.568Z,977.08
2022-09-03T13:51:52.144Z,709.47
2022-09-03T13:53:04.660Z,620.80
2022-09-03T13:54:26.316Z,548.55
2022-09-03T13:55:49.030Z,346.00
2022-09-03T13:56:58.471Z,291.10
2022-09-03T13:58:11.003Z,257.48
2022-09-03T13:59:20.511Z,301.23
2022-09-03T14:00:33.041Z,335.30
2022-09-03T14:01:52.296Z,390.92
2022-09-03T14:03:01.330Z,361.00
2022-09-03T14:04:11.666Z,356.35
2022-09-03T14:05:23.891Z,337.65
2022-09-03T14:06:45.210Z,260.92
2022-09-03T14:08:00.266Z,245.07
2022-09-03T14:09:14.806Z,2.47
2022-09-03T14:10:25.433Z,2.20
2022-09-03T14:11:35.493Z,2.08
2022-09-03T14:12:45.782Z,2.75
2022-09-03T14:14:05.452Z,2.15
2022-09-03T14:15:16.111Z,2.08
2022-09-03T14:16:34.012Z,2.88
2022-09-03T14:17:47.074Z,3.05
2022-09-03T14:18:57.269Z,2.83
2022-09-03T14:20:09.397Z,4.00
2022-09-03T14:21:17.250Z,131.07
2022-09-03T14:22:30.497Z,123.28
2022-09-03T14:23:41.598Z,48.40
2022-09-03T14:24:51.963Z,131.65
2022-09-03T14:25:54.777Z,292.98
2022-09-03T14:27:02.060Z,339.77
2022-09-03T14:28:16.293Z,374.45
2022-09-03T14:29:25.952Z,378.33
2022-09-03T14:30:41.536Z,269.10
2022-09-03T14:32:18.176Z,837.78
2022-09-03T14:33:31.439Z,918.72
2022-09-03T14:34:45.913Z,879.88
2022-09-03T14:36:10.055Z,816.80
2022-09-03T14:37:41.077Z,817.25
2022-09-03T14:38:58.040Z,737.65
2022-09-03T14:40:15.606Z,635.33
2022-09-03T14:41:42.689Z,457.83
2022-09-03T14:42:59.575Z,307.48
2022-09-03T14:44:28.064Z,289.75
2022-09-03T14:46:03.576Z,219.57
2022-09-03T14:47:26.337Z,168.32
2022-09-03T14:48:54.573Z,186.23
2022-09-03T14:50:25.381Z,220.10
2022-09-03T14:51:55.820Z,209.25
2022-09-03T14:53:26.134Z,193.60
2022-09-03T14:54:39.176Z,202.13
2022-09-03T14:56:07.717Z,186.20
2022-09-03T14:57:29.361Z,285.05
2022-09-03T14:58:48.188Z,346.67
2022-09-03T15:00:08.097Z,366.77
2022-09-03T15:01:23.367Z,213.65
2022-09-03T15:02:57.883Z,280.17
2022-09-03T15:04:28.501Z,248.98
2022-09-03T15:05:48.216Z,225.38
2022-09-03T15:07:21.190Z,236.10
2022-09-03T15:08:57.342Z,229.93
2022-09-03T15:10:08.314Z,234.73
2022-09-03T15:11:20.083Z,244.02
2022-09-03T15:12:29.178Z,280.00
2022-09-03T15:13:38.642Z,182.35
2022-09-03T15:14:50.154Z,289.65
2022-09-03T15:16:07.640Z,316.63
2022-09-03T15:17:31.060Z,314.67
2022-09-03T15:18:53.878Z,150.00
2022-09-03T15:20:07.608Z,144.82
2022-09-03T15:21:27.161Z,145.30
2022-09-03T15:22:50.172Z,95.38
2022-09-03T15:24:08.274Z,53.53
2022-09-03T15:25:25.813Z,54.75
2022-09-03T15:26:57.408Z,81.45
2022-09-03T15:28:14.687Z,107.03
2022-09-03T15:29:46.240Z,88.88
2022-09-03T15:30:55.659Z,48.15
2022-09-03T15:32:09.759Z,34.75
2022-09-03T15:33:30.817Z,41.60
2022-09-03T15:34:49.910Z,55.40
2022-09-03T15:36:15.139Z,95.32
2022-09-03T15:37:21.646Z,142.55
2022-09-03T15:38:42.086Z,254.75
2022-09-03T15:39:49.408Z,225.18
2022-09-03T15:40:57.197Z,192.35
2022-09-03T15:42:04.465Z,146.60
2022-09-03T15:43:10.699Z,138.63
2022-09-03T15:44:19.836Z,129.57
2022-09-03T15:45:35.400Z,182.73
2022-09-03T15:46:53.151Z,88.90
2022-09-03T15:48:10.782Z,69.40
2022-09-03T15:49:35.364Z,89.60
2022-09-03T15:50:52.827Z,72.07
2022-09-03T15:52:14.679Z,57.85
2022-09-03T15:53:36.690Z,75.75
2022-09-03T15:54:49.358Z,64.65
2022-09-03T15:56:13.681Z,310.50
2022-09-03T15:58:08.051Z,286.80
2022-09-03T15:59:26.929Z,310.38
2022-09-03T16:00:31.159Z,555.22
2022-09-03T16:01:48.139Z,585.72
2022-09-03T16:02:59.093Z,694.38
2022-09-03T16:04:10.414Z,926.55
2022-09-03T16:05:26.541Z,956.85
2022-09-03T16:06:38.130Z,193.25
2022-09-03T16:09:00.291Z,434.83
2022-09-03T16:10:30.277Z,287.42
2022-09-03T16:11:39.273Z,293.50
2022-09-03T16:12:53.523Z,339.75
2022-09-03T16:14:07.286Z,276.48
2022-09-03T16:15:17.526Z,210.82
2022-09-03T16:16:25.705Z,95.10
2022-09-03T16:17:35.376Z,26.25
2022-09-03T16:18:45.626Z,11.30
2022-09-03T16:20:01.148Z,2.33
2022-09-03T16:21:08.238Z,3.30
2022-09-03T16:22:20.817Z,2.67
2022-09-03T16:23:28.202Z,4.45
2022-09-03T16:24:47.079Z,15.32
2022-09-03T16:25:56.444Z,31.15
2022-09-03T16:27:03.594Z,27.48